Duncan, AZ

11:46 AM MST on Septiembre 04, 2015 (GMT -0700)
APRSWXNET | | Change Station
CLOSE
Current Station
Personal Weather Stations
Location: Duncan, AZ
Elevation: 3815 ft
Nearby Weather Stations

Elev 3815 ft 32.75 °N, 109.08 °W | Updated 19 minutes ago

Overcast
Overcast
73 °F
Feels Like 76 °F
N
2
Hangin Variable Hangin from West
Gusts 3.0 mph

Ngayon
High -- | Low -- °F
--% Chance of Precip.
Yesterday
High -- | Low -- °F
Precip. -- sa
5:52 AM 6:37 PM
Waning Gibbous, 57% visible
Pwersa 29.89 sa
Paningin 10.0 milya
Mga Ulap Mostly Cloudy 11000 ft
HeatIndex 76 °F
Hamog 61 °F
Humidito 67%
Rainfall sa
Snow Depth Not available.
UV 5 out of 12
Pollen 2.60 out of 12
Air Quality Not available.
Flu Activity Not available.
METAR KSAD 041751Z AUTO 11008KT 10SM BKN110 24/17 A3002 RMK AO2 RAE22 SLP120 P0000 60000 T02390167 10239 20200 50007
Pwersa 29.89 sa
Paningin 10.0 milya
Mga Ulap Mostly Cloudy 11000 ft
HeatIndex 76 °F
Hamog 61 °F
Humidito 67%
Rainfall sa
Snow Depth Not available.
UV 5 out of 12
Pollen 2.60 out of 12
Air Quality Not available.
Flu Activity Not available.
METAR KSAD 041751Z AUTO 11008KT 10SM BKN110 24/17 A3002 RMK AO2 RAE22 SLP120 P0000 60000 T02390167 10239 20200 50007

10-Day Weather Forecast

×

Almanac

Astronomiya

Sep. 04, 2015 Rise Set
Actual Time
Civil Twilight
Nautical Twilight
Astronomical Twilight
Buwan
Length Of Visible Light
Haba ng Araw
Tomorrow will be .
, % of the Moon is Illuminated

Today's Extremes

State Highs State Lows

Community

WunderPhotos

Upload Photos

1,852,262 photos uploaded!

WunderBlogs® & News

Nearby

Air Quality

  Air Quality AQ Index Pollutant
Not available.

Snow Depth

Station Depth Elevation

Earthquake Activity

Siyudad Distance Mag. Time & Date
Minimum magnitude displayed is 2.5.

Coastal Water Temperatures

lugar Temparatura

Stations

Nearby Weather Stations

Station Location Temp Windchill Hamog Humidito Hangin Precip. Elev Bago Type